createdAt,value
2022-10-14T00:01:24.683Z,11.90
2022-10-14T00:03:53.466Z,11.90
2022-10-14T00:06:24.857Z,11.80
2022-10-14T00:08:55.479Z,11.80
2022-10-14T00:11:28.329Z,11.90
2022-10-14T00:14:01.441Z,11.80
2022-10-14T00:16:34.747Z,11.80
2022-10-14T00:19:04.455Z,11.80
2022-10-14T00:21:34.073Z,11.70
2022-10-14T00:24:02.350Z,11.70
2022-10-14T00:26:34.015Z,11.70
2022-10-14T00:29:03.881Z,11.60
2022-10-14T00:31:32.831Z,11.60
2022-10-14T00:34:01.603Z,11.60
2022-10-14T00:36:29.942Z,11.60
2022-10-14T00:38:58.210Z,11.60
2022-10-14T00:41:32.158Z,11.60
2022-10-14T00:44:04.635Z,11.70
2022-10-14T00:46:39.205Z,11.70
2022-10-14T00:49:31.842Z,11.70
2022-10-14T00:52:08.183Z,11.70
2022-10-14T00:54:50.953Z,11.60
2022-10-14T00:57:20.716Z,11.60
2022-10-14T00:59:49.490Z,11.60
2022-10-14T01:02:18.621Z,11.60
2022-10-14T01:04:46.592Z,11.60
2022-10-14T01:07:40.293Z,11.60
2022-10-14T01:10:33.162Z,11.60
2022-10-14T01:13:25.441Z,11.50
2022-10-14T01:16:12.374Z,11.50
2022-10-14T01:19:07.693Z,11.60
2022-10-14T01:21:47.286Z,11.60
2022-10-14T01:24:19.028Z,11.60
2022-10-14T01:27:04.951Z,11.60
2022-10-14T01:29:54.258Z,11.60
2022-10-14T01:32:25.014Z,11.60
2022-10-14T01:35:12.120Z,11.60
2022-10-14T01:37:49.106Z,11.60
2022-10-14T01:40:33.628Z,11.60
2022-10-14T01:43:02.935Z,11.60
2022-10-14T01:45:33.909Z,11.60
2022-10-14T01:48:05.245Z,11.60
2022-10-14T01:50:36.222Z,11.60
2022-10-14T01:53:14.765Z,11.50
2022-10-14T01:55:46.243Z,11.60
2022-10-14T01:58:18.051Z,11.60
2022-10-14T02:00:47.968Z,11.60
2022-10-14T02:03:16.325Z,11.60
2022-10-14T02:05:51.416Z,11.60
2022-10-14T02:08:56.253Z,11.50
2022-10-14T02:11:26.201Z,11.50
2022-10-14T02:14:12.435Z,11.50
2022-10-14T02:17:19.771Z,11.50
2022-10-14T02:20:21.262Z,11.50
2022-10-14T02:22:54.814Z,11.50
2022-10-14T02:25:27.458Z,11.50
2022-10-14T02:27:55.231Z,11.50
2022-10-14T02:30:22.870Z,11.50
2022-10-14T02:32:52.828Z,11.60
2022-10-14T02:35:24.254Z,11.50
2022-10-14T02:37:55.258Z,11.60
2022-10-14T02:40:33.435Z,11.50
2022-10-14T02:43:01.936Z,11.50
2022-10-14T02:45:30.289Z,11.50
2022-10-14T02:47:57.845Z,11.50
2022-10-14T02:50:25.947Z,11.60
2022-10-14T02:52:54.106Z,11.60
2022-10-14T02:55:22.315Z,11.50
2022-10-14T02:57:50.943Z,11.60
2022-10-14T03:00:20.674Z,11.50
2022-10-14T03:02:51.230Z,11.60
2022-10-14T03:05:20.305Z,11.50
2022-10-14T03:07:49.106Z,11.50
2022-10-14T03:10:17.728Z,11.50
2022-10-14T03:12:46.114Z,11.50
2022-10-14T03:15:15.085Z,11.60
2022-10-14T03:17:43.778Z,11.50
2022-10-14T03:20:12.172Z,11.50
2022-10-14T03:22:39.981Z,11.50
2022-10-14T03:25:07.430Z,11.40
2022-10-14T03:27:36.467Z,11.30
2022-10-14T03:30:05.958Z,11.30
2022-10-14T03:32:34.205Z,11.30
2022-10-14T03:35:02.898Z,11.30
2022-10-14T03:37:31.126Z,11.30
2022-10-14T03:39:59.395Z,11.30
2022-10-14T03:42:28.677Z,11.20
2022-10-14T03:44:56.825Z,11.10
2022-10-14T03:47:25.417Z,11.10
2022-10-14T03:49:54.048Z,11.10
2022-10-14T03:52:22.751Z,11.20
2022-10-14T03:54:51.553Z,11.10
2022-10-14T03:57:19.870Z,11.10
2022-10-14T03:59:47.506Z,11.10
2022-10-14T04:02:15.043Z,11.10
2022-10-14T04:04:42.563Z,11.10
2022-10-14T04:07:10.037Z,11.00
2022-10-14T04:09:56.172Z,11.00
2022-10-14T04:12:41.424Z,10.90
2022-10-14T04:15:10.168Z,10.80
2022-10-14T04:17:45.962Z,10.80
2022-10-14T04:20:15.165Z,10.70
2022-10-14T04:22:44.497Z,10.70
2022-10-14T04:25:12.956Z,10.70
2022-10-14T04:27:40.570Z,10.70
2022-10-14T04:30:10.465Z,10.70
2022-10-14T04:32:39.253Z,10.70
2022-10-14T04:35:07.393Z,10.70
2022-10-14T04:37:35.999Z,10.60
2022-10-14T04:40:05.664Z,10.60
2022-10-14T04:42:33.973Z,10.60
2022-10-14T04:45:03.634Z,10.50
2022-10-14T04:47:31.877Z,10.50
2022-10-14T04:49:59.490Z,10.60
2022-10-14T04:52:28.509Z,10.50
2022-10-14T04:54:57.376Z,10.50
2022-10-14T04:57:26.009Z,10.50
2022-10-14T04:59:53.587Z,10.40
2022-10-14T05:02:22.868Z,10.40
2022-10-14T05:04:51.699Z,10.30
2022-10-14T05:07:20.549Z,10.30
2022-10-14T05:09:51.272Z,10.20
2022-10-14T05:12:23.455Z,10.20
2022-10-14T05:14:51.337Z,10.20
2022-10-14T05:17:20.210Z,10.20
2022-10-14T05:19:49.613Z,10.20
2022-10-14T05:22:17.111Z,10.20
2022-10-14T05:24:45.747Z,10.20
2022-10-14T05:27:13.956Z,10.20
2022-10-14T05:29:42.190Z,10.20
2022-10-14T05:32:10.934Z,10.10
2022-10-14T05:34:39.759Z,10.10
2022-10-14T05:37:07.395Z,10.10
2022-10-14T05:39:34.218Z,10.00
2022-10-14T05:42:03.362Z,9.90
2022-10-14T05:44:31.627Z,10.00
2022-10-14T05:47:00.484Z,9.90
2022-10-14T05:49:30.061Z,9.90
2022-10-14T05:51:57.654Z,9.80
2022-10-14T05:54:25.930Z,9.90
2022-10-14T05:56:54.474Z,9.80
2022-10-14T05:59:23.364Z,9.80
2022-10-14T06:01:51.152Z,9.90
2022-10-14T06:04:21.247Z,9.80
2022-10-14T06:06:50.154Z,9.70
2022-10-14T06:09:20.108Z,9.70
2022-10-14T06:11:47.884Z,9.60
2022-10-14T06:14:16.077Z,9.60
2022-10-14T06:16:42.966Z,9.70
2022-10-14T06:19:11.802Z,9.80
2022-10-14T06:21:40.157Z,9.80
2022-10-14T06:24:09.002Z,9.80
2022-10-14T06:26:36.836Z,9.80
2022-10-14T06:29:05.250Z,9.80
2022-10-14T06:31:33.021Z,9.70
2022-10-14T06:34:05.871Z,9.80
2022-10-14T06:36:33.937Z,9.70
2022-10-14T06:39:04.529Z,9.70
2022-10-14T06:41:33.039Z,9.80
2022-10-14T06:44:01.588Z,9.80
2022-10-14T06:46:31.385Z,9.80
2022-10-14T06:48:59.657Z,9.80
2022-10-14T06:51:28.541Z,9.90
2022-10-14T06:53:57.595Z,9.90
2022-10-14T06:56:25.781Z,9.90
2022-10-14T06:58:56.270Z,10.00
2022-10-14T07:01:25.936Z,10.10
2022-10-14T07:03:56.745Z,10.10
2022-10-14T07:06:25.206Z,10.10
2022-10-14T07:08:54.299Z,10.10
2022-10-14T07:11:22.605Z,10.20
2022-10-14T07:13:51.683Z,10.20
2022-10-14T07:16:19.895Z,10.30
2022-10-14T07:18:48.064Z,10.30
2022-10-14T07:21:16.237Z,10.40
2022-10-14T07:23:44.401Z,10.50
2022-10-14T07:26:12.983Z,10.50
2022-10-14T07:28:40.789Z,10.60
2022-10-14T07:31:11.397Z,10.60
2022-10-14T07:33:40.315Z,10.70
2022-10-14T07:36:16.152Z,10.80
2022-10-14T07:38:48.342Z,10.90
2022-10-14T07:41:19.781Z,11.00
2022-10-14T07:43:50.517Z,11.00
2022-10-14T07:46:29.366Z,11.10
2022-10-14T07:49:08.654Z,11.10
2022-10-14T07:51:36.438Z,11.20
2022-10-14T07:54:09.853Z,11.20
2022-10-14T07:56:38.779Z,11.20
2022-10-14T07:59:06.461Z,11.20
2022-10-14T08:01:34.193Z,11.20
2022-10-14T08:04:02.409Z,11.20
2022-10-14T08:06:30.252Z,11.20
2022-10-14T08:08:57.776Z,11.20
2022-10-14T08:11:27.871Z,11.30
2022-10-14T08:13:58.540Z,11.30
2022-10-14T08:16:28.465Z,11.40
2022-10-14T08:19:00.301Z,11.40
2022-10-14T08:21:28.250Z,11.40
2022-10-14T08:23:56.272Z,11.40
2022-10-14T08:26:36.309Z,11.40
2022-10-14T08:29:06.957Z,11.50
2022-10-14T08:31:34.702Z,11.50
2022-10-14T08:34:02.196Z,11.50
2022-10-14T08:36:29.914Z,11.60
2022-10-14T08:38:58.930Z,11.60
2022-10-14T08:41:42.561Z,11.70
2022-10-14T08:44:25.985Z,11.80
2022-10-14T08:47:00.241Z,11.80
2022-10-14T08:49:43.702Z,11.80
2022-10-14T08:52:23.693Z,11.80
2022-10-14T08:54:58.966Z,11.90
2022-10-14T08:57:39.117Z,11.90
2022-10-14T09:00:10.110Z,12.00
2022-10-14T09:02:45.899Z,12.00
2022-10-14T09:05:18.562Z,12.00
2022-10-14T09:07:48.871Z,12.00
2022-10-14T09:10:40.493Z,12.10
2022-10-14T09:13:34.485Z,12.10
2022-10-14T09:16:08.583Z,12.20
2022-10-14T09:18:40.319Z,12.20
2022-10-14T09:24:37.799Z,12.40
2022-10-14T09:27:16.321Z,12.40
2022-10-14T09:30:02.091Z,12.50
2022-10-14T09:32:41.378Z,12.50
2022-10-14T09:35:17.060Z,12.60
2022-10-14T09:37:46.105Z,12.60
2022-10-14T09:40:13.719Z,12.70
2022-10-14T09:43:24.154Z,12.80
2022-10-14T09:46:10.980Z,12.80
2022-10-14T09:48:52.488Z,13.00
2022-10-14T09:51:27.754Z,13.00
2022-10-14T09:54:01.965Z,13.10
2022-10-14T09:56:41.937Z,13.10
2022-10-14T09:59:20.447Z,13.10
2022-10-14T10:01:51.846Z,13.20
2022-10-14T10:04:47.542Z,13.10
2022-10-14T10:07:33.869Z,13.10
2022-10-14T10:10:16.329Z,13.10
2022-10-14T10:12:47.081Z,13.20
2022-10-14T10:15:23.935Z,13.10
2022-10-14T10:17:52.826Z,13.10
2022-10-14T10:20:33.578Z,13.10
2022-10-14T10:23:37.523Z,13.20
2022-10-14T10:26:25.939Z,13.20
2022-10-14T10:28:57.434Z,13.20
2022-10-14T10:31:56.840Z,13.30
2022-10-14T10:34:51.846Z,13.40
2022-10-14T10:37:30.278Z,13.40
2022-10-14T10:40:25.658Z,13.50
2022-10-14T10:43:18.684Z,13.60
2022-10-14T10:45:58.624Z,13.60
2022-10-14T10:49:08.131Z,13.50
2022-10-14T10:51:57.086Z,13.50
2022-10-14T10:54:44.976Z,13.50
2022-10-14T10:57:38.456Z,13.50
2022-10-14T11:00:13.456Z,13.50
2022-10-14T11:02:41.135Z,13.50
2022-10-14T11:05:51.484Z,13.50
2022-10-14T11:08:43.461Z,13.50
2022-10-14T11:11:42.581Z,13.60
2022-10-14T11:14:37.454Z,13.80
2022-10-14T11:17:28.769Z,14.00
2022-10-14T11:20:13.771Z,14.20
2022-10-14T11:23:06.706Z,14.50
2022-10-14T11:25:51.863Z,14.80
2022-10-14T11:28:51.305Z,14.90
2022-10-14T11:31:47.153Z,14.90
2022-10-14T11:34:24.031Z,15.10
2022-10-14T11:37:34.269Z,15.10
2022-10-14T11:40:22.073Z,15.10
2022-10-14T11:43:09.148Z,15.00
2022-10-14T11:45:49.781Z,15.00
2022-10-14T11:48:34.588Z,15.00
2022-10-14T11:51:24.515Z,15.40
2022-10-14T11:54:05.286Z,15.60
2022-10-14T11:56:53.108Z,15.50
2022-10-14T12:00:00.179Z,15.80
2022-10-14T12:02:39.279Z,16.10
2022-10-14T12:05:17.387Z,16.10
2022-10-14T12:08:05.362Z,16.00
2022-10-14T12:10:38.806Z,16.20
2022-10-14T12:13:13.768Z,16.10
2022-10-14T12:15:48.945Z,16.20
2022-10-14T12:18:19.342Z,16.40
2022-10-14T12:20:59.067Z,16.40
2022-10-14T12:23:39.487Z,16.60
2022-10-14T12:26:22.461Z,16.60
2022-10-14T12:28:52.839Z,16.50
2022-10-14T12:31:36.761Z,16.60
2022-10-14T12:34:11.190Z,16.70
2022-10-14T12:36:51.512Z,16.90
2022-10-14T12:39:28.877Z,16.70
2022-10-14T12:42:05.844Z,16.70
2022-10-14T12:44:35.878Z,16.60
2022-10-14T12:47:04.981Z,16.70
2022-10-14T12:49:35.732Z,16.80
2022-10-14T12:52:09.202Z,17.00
2022-10-14T12:54:45.974Z,17.00
2022-10-14T12:57:30.000Z,17.10
2022-10-14T13:00:01.226Z,17.10
2022-10-14T13:02:35.287Z,17.30
2022-10-14T13:05:10.746Z,17.40
2022-10-14T13:07:46.839Z,17.40
2022-10-14T13:10:45.882Z,17.30
2022-10-14T13:13:47.882Z,17.60
2022-10-14T13:16:25.307Z,17.90
2022-10-14T13:18:58.405Z,17.60
2022-10-14T13:21:36.437Z,17.60
2022-10-14T13:24:23.468Z,17.70
2022-10-14T13:26:55.505Z,17.40
2022-10-14T13:29:33.088Z,17.50
2022-10-14T13:32:30.814Z,17.40
2022-10-14T13:35:17.878Z,17.40
2022-10-14T13:37:58.206Z,17.20
2022-10-14T13:40:38.929Z,16.90
2022-10-14T13:43:15.319Z,16.70
2022-10-14T13:45:52.986Z,16.60
2022-10-14T13:48:30.688Z,16.40
2022-10-14T13:51:36.163Z,16.30
2022-10-14T13:54:32.970Z,16.20
2022-10-14T13:57:53.508Z,16.00
2022-10-14T14:02:56.707Z,15.60
2022-10-14T14:05:36.065Z,15.60
2022-10-14T14:08:34.896Z,15.50
2022-10-14T14:11:16.208Z,15.40
2022-10-14T14:14:01.373Z,15.40
2022-10-14T14:16:35.799Z,15.30
2022-10-14T14:19:08.717Z,15.10
2022-10-14T14:21:38.398Z,15.00
2022-10-14T14:24:17.646Z,14.90
2022-10-14T14:26:46.735Z,14.80
2022-10-14T14:29:18.303Z,14.80
2022-10-14T14:32:05.437Z,14.80
2022-10-14T14:34:35.846Z,14.80
2022-10-14T14:37:34.357Z,14.80
2022-10-14T14:40:16.803Z,14.70
2022-10-14T14:42:48.252Z,14.70
2022-10-14T14:45:29.191Z,14.60
2022-10-14T14:48:01.963Z,14.60
2022-10-14T14:50:43.017Z,14.50
2022-10-14T14:53:18.798Z,14.40
2022-10-14T14:56:00.526Z,14.40
2022-10-14T14:58:34.889Z,14.40
2022-10-14T15:01:03.871Z,14.30
2022-10-14T15:04:13.527Z,14.30
2022-10-14T15:06:36.829Z,14.30
2022-10-14T15:09:13.705Z,14.10
2022-10-14T15:11:54.855Z,14.10
2022-10-14T15:14:34.950Z,14.00
2022-10-14T15:17:07.057Z,13.90
2022-10-14T15:19:38.090Z,13.90
2022-10-14T15:22:29.497Z,13.80
2022-10-14T15:25:23.307Z,13.70
2022-10-14T15:27:54.855Z,13.70
2022-10-14T15:30:27.830Z,13.60
2022-10-14T15:33:20.358Z,13.50
2022-10-14T15:36:02.613Z,13.50
2022-10-14T15:41:04.109Z,13.30
2022-10-14T15:43:34.657Z,13.30
2022-10-14T15:46:20.600Z,13.30
2022-10-14T15:48:52.381Z,13.20
2022-10-14T15:51:26.154Z,13.20
2022-10-14T15:53:54.426Z,13.10
2022-10-14T15:56:24.209Z,13.10
2022-10-14T15:58:51.705Z,13.10
2022-10-14T16:01:21.995Z,13.10
2022-10-14T16:03:52.354Z,13.00
2022-10-14T16:06:22.617Z,13.00
2022-10-14T16:08:50.350Z,12.90
2022-10-14T16:11:29.167Z,12.90
2022-10-14T16:13:57.513Z,12.90
2022-10-14T16:16:37.516Z,12.80
2022-10-14T16:19:07.308Z,12.90
2022-10-14T16:21:35.008Z,12.90
2022-10-14T16:24:03.695Z,12.80
2022-10-14T16:26:33.385Z,12.80
2022-10-14T16:29:03.733Z,12.70
2022-10-14T16:31:32.629Z,12.70
2022-10-14T16:34:01.908Z,12.70
2022-10-14T16:36:29.926Z,12.60
2022-10-14T16:39:00.492Z,12.60
2022-10-14T16:41:30.948Z,12.70
2022-10-14T16:43:59.816Z,12.60
2022-10-14T16:46:47.116Z,12.60
2022-10-14T16:49:15.720Z,12.50
2022-10-14T16:51:45.899Z,12.50
2022-10-14T16:54:14.070Z,12.50
2022-10-14T16:56:54.415Z,12.40
2022-10-14T16:59:23.477Z,12.40
2022-10-14T17:01:52.024Z,12.40
2022-10-14T17:04:20.300Z,12.30
2022-10-14T17:06:48.487Z,12.40
2022-10-14T17:09:18.738Z,12.30
2022-10-14T17:11:47.737Z,12.30
2022-10-14T17:14:18.333Z,12.20
2022-10-14T17:16:50.417Z,12.20
2022-10-14T17:19:20.285Z,12.20
2022-10-14T17:21:49.110Z,12.20
2022-10-14T17:24:17.021Z,12.10
2022-10-14T17:26:45.669Z,12.20
2022-10-14T17:29:14.651Z,12.20
2022-10-14T17:31:42.477Z,12.10
2022-10-14T17:34:11.541Z,12.10
2022-10-14T17:36:41.676Z,12.10
2022-10-14T17:39:18.660Z,12.10
2022-10-14T17:41:52.749Z,12.10
2022-10-14T17:44:20.306Z,12.10
2022-10-14T17:46:48.797Z,12.10
2022-10-14T17:49:16.653Z,12.10
2022-10-14T17:51:45.078Z,12.00
2022-10-14T17:54:13.034Z,12.10
2022-10-14T17:56:43.082Z,12.10
2022-10-14T17:59:14.283Z,12.10
2022-10-14T18:02:02.799Z,12.10
2022-10-14T18:04:32.641Z,12.00
2022-10-14T18:07:02.077Z,12.00
2022-10-14T18:09:30.402Z,12.00
2022-10-14T18:12:13.458Z,12.00
2022-10-14T18:14:42.576Z,12.00
2022-10-14T18:17:12.492Z,12.00
2022-10-14T18:19:42.020Z,12.00
2022-10-14T18:22:11.206Z,12.10
2022-10-14T18:24:40.745Z,12.00
2022-10-14T18:27:09.043Z,12.00
2022-10-14T18:29:38.561Z,12.00
2022-10-14T18:32:06.571Z,12.00
2022-10-14T18:34:35.023Z,12.00
2022-10-14T18:37:03.442Z,12.00
2022-10-14T18:39:31.053Z,12.00
2022-10-14T18:41:59.398Z,12.00
2022-10-14T18:44:26.282Z,12.00
2022-10-14T18:46:55.053Z,12.00
2022-10-14T18:49:23.310Z,12.00
2022-10-14T18:51:53.173Z,12.00
2022-10-14T18:54:24.773Z,12.00
2022-10-14T18:56:54.898Z,12.00
2022-10-14T18:59:23.841Z,12.00
2022-10-14T19:01:53.270Z,12.00
2022-10-14T19:04:25.666Z,12.00
2022-10-14T19:06:53.867Z,12.00
2022-10-14T19:09:24.861Z,12.00
2022-10-14T19:11:53.127Z,12.00
2022-10-14T19:14:22.539Z,12.00
2022-10-14T19:16:50.406Z,12.00
2022-10-14T19:19:20.163Z,12.00
2022-10-14T19:21:54.148Z,12.00
2022-10-14T19:24:22.037Z,12.00
2022-10-14T19:26:50.231Z,12.10
2022-10-14T19:29:18.798Z,12.10
2022-10-14T19:31:46.581Z,12.10
2022-10-14T19:34:15.940Z,12.00
2022-10-14T19:36:44.810Z,12.00
2022-10-14T19:39:16.453Z,12.00
2022-10-14T19:41:47.349Z,12.00
2022-10-14T19:44:16.694Z,12.10
2022-10-14T19:46:45.810Z,12.10
2022-10-14T19:49:14.673Z,12.10
2022-10-14T19:51:42.507Z,12.00
2022-10-14T19:54:12.398Z,12.10
2022-10-14T19:56:42.047Z,12.00
2022-10-14T19:59:10.746Z,12.00
2022-10-14T20:01:39.102Z,12.00
2022-10-14T20:04:07.142Z,12.10
2022-10-14T20:06:37.800Z,12.00
2022-10-14T20:09:07.285Z,12.10
2022-10-14T20:11:35.989Z,12.10
2022-10-14T20:14:03.733Z,12.10
2022-10-14T20:16:30.714Z,12.10
2022-10-14T20:18:58.502Z,12.10
2022-10-14T20:21:26.464Z,12.10
2022-10-14T20:23:53.349Z,12.00
2022-10-14T20:26:22.723Z,12.00
2022-10-14T20:28:50.515Z,12.00
2022-10-14T20:31:20.809Z,12.00
2022-10-14T20:33:48.829Z,12.00
2022-10-14T20:36:19.779Z,12.00
2022-10-14T20:38:48.137Z,12.00
2022-10-14T20:41:17.772Z,12.10
2022-10-14T20:43:48.098Z,12.00
2022-10-14T20:46:17.635Z,12.00
2022-10-14T20:48:45.863Z,11.90
2022-10-14T20:51:17.914Z,11.90
2022-10-14T20:53:45.597Z,11.90
2022-10-14T20:56:14.719Z,11.90
2022-10-14T20:58:43.209Z,11.90
2022-10-14T21:01:15.897Z,11.90
2022-10-14T21:03:46.130Z,11.90
2022-10-14T21:06:18.447Z,11.90
2022-10-14T21:08:49.486Z,11.90
2022-10-14T21:11:23.281Z,11.90
2022-10-14T21:13:54.165Z,11.90
2022-10-14T21:16:31.188Z,11.90
2022-10-14T21:19:02.899Z,11.90
2022-10-14T21:21:45.397Z,11.90
2022-10-14T21:24:16.858Z,11.90
2022-10-14T21:26:51.837Z,11.90
2022-10-14T21:29:21.597Z,11.90
2022-10-14T21:31:49.654Z,11.90
2022-10-14T21:34:18.403Z,11.90
2022-10-14T21:36:45.338Z,11.90
2022-10-14T21:39:18.350Z,11.90
2022-10-14T21:41:46.829Z,11.80
2022-10-14T21:44:17.836Z,11.80
2022-10-14T21:46:46.861Z,11.80
2022-10-14T21:49:16.079Z,11.80
2022-10-14T21:51:44.438Z,11.80
2022-10-14T21:54:12.797Z,11.80
2022-10-14T21:56:40.387Z,11.80
2022-10-14T21:59:07.505Z,11.70
2022-10-14T22:01:36.533Z,11.70
2022-10-14T22:04:05.865Z,11.70
2022-10-14T22:06:35.428Z,11.70
2022-10-14T22:09:06.218Z,11.70
2022-10-14T22:11:38.017Z,11.70
2022-10-14T22:14:07.755Z,11.80
2022-10-14T22:16:36.299Z,11.70
2022-10-14T22:19:06.776Z,11.70
2022-10-14T22:21:36.548Z,11.70
2022-10-14T22:24:05.487Z,11.70
2022-10-14T22:26:33.297Z,11.70
2022-10-14T22:29:08.654Z,11.80
2022-10-14T22:31:36.402Z,11.80
2022-10-14T22:34:05.490Z,11.80
2022-10-14T22:36:34.004Z,11.90
2022-10-14T22:39:07.250Z,11.90
2022-10-14T22:41:35.855Z,11.80
2022-10-14T22:44:05.809Z,11.90
2022-10-14T22:46:36.171Z,12.00
2022-10-14T22:49:05.358Z,12.00
2022-10-14T22:51:35.874Z,12.10
2022-10-14T22:54:04.552Z,12.10
2022-10-14T22:56:32.781Z,12.10
2022-10-14T22:59:03.604Z,12.20
2022-10-14T23:01:32.236Z,12.20
2022-10-14T23:04:00.738Z,12.20
2022-10-14T23:06:29.338Z,12.20
2022-10-14T23:09:00.433Z,12.30
2022-10-14T23:11:31.358Z,12.30
2022-10-14T23:14:02.814Z,12.30
2022-10-14T23:16:34.418Z,12.30
2022-10-14T23:19:03.136Z,12.30
2022-10-14T23:21:33.216Z,12.40
2022-10-14T23:24:03.035Z,12.40
2022-10-14T23:26:37.074Z,12.40
2022-10-14T23:29:08.238Z,12.40
2022-10-14T23:31:37.826Z,12.40
2022-10-14T23:34:10.928Z,12.40
2022-10-14T23:36:39.984Z,12.40
2022-10-14T23:39:09.059Z,12.50
2022-10-14T23:41:38.095Z,12.50
2022-10-14T23:44:07.253Z,12.50
2022-10-14T23:46:34.774Z,12.50
2022-10-14T23:49:36.922Z,12.50
2022-10-14T23:51:51.797Z,12.50
2022-10-14T23:54:19.324Z,12.50
2022-10-14T23:56:46.922Z,12.50
2022-10-14T23:59:14.563Z,12.50
